createdAt,value
2022-08-08T00:02:03.313Z,99.90
2022-08-08T00:04:25.414Z,99.90
2022-08-08T00:07:12.569Z,99.90
2022-08-08T00:09:44.880Z,99.90
2022-08-08T00:14:59.387Z,99.90
2022-08-08T00:17:47.998Z,99.90
2022-08-08T00:20:27.565Z,99.90
2022-08-08T00:23:00.979Z,99.90
2022-08-08T00:25:39.154Z,99.90
2022-08-08T00:28:34.446Z,99.90
2022-08-08T00:32:29.319Z,99.90
2022-08-08T00:34:20.157Z,99.90
2022-08-08T00:36:54.909Z,99.90
2022-08-08T00:41:09.291Z,99.90
2022-08-08T00:42:43.534Z,99.90
2022-08-08T00:45:32.213Z,99.90
2022-08-08T00:51:02.504Z,99.90
2022-08-08T00:53:43.534Z,99.90
2022-08-08T00:56:45.501Z,99.90
2022-08-08T00:59:43.733Z,99.90
2022-08-08T01:03:58.444Z,99.90
2022-08-08T01:05:59.774Z,99.90
2022-08-08T01:08:54.476Z,99.90
2022-08-08T01:11:42.186Z,99.90
2022-08-08T01:14:54.685Z,99.90
2022-08-08T01:20:13.515Z,99.90
2022-08-08T01:23:03.489Z,99.90
2022-08-08T01:25:58.779Z,99.90
2022-08-08T01:28:47.168Z,99.90
2022-08-08T01:32:14.673Z,99.90
2022-08-08T01:34:43.314Z,99.90
2022-08-08T01:37:51.141Z,99.90
2022-08-08T01:40:29.029Z,99.90
2022-08-08T01:43:04.874Z,99.90
2022-08-08T01:45:38.694Z,99.90
2022-08-08T01:48:16.347Z,99.90
2022-08-08T01:51:55.125Z,99.90
2022-08-08T01:55:17.728Z,99.90
2022-08-08T01:57:17.426Z,99.90
2022-08-08T02:00:03.088Z,99.90
2022-08-08T02:02:57.238Z,99.90
2022-08-08T02:05:33.972Z,99.90
2022-08-08T02:08:33.935Z,99.90
2022-08-08T02:11:08.558Z,99.90
2022-08-08T02:13:56.643Z,99.90
2022-08-08T02:16:38.948Z,99.90
2022-08-08T02:19:41.825Z,99.90
2022-08-08T02:22:28.126Z,99.90
2022-08-08T02:25:01.084Z,99.90
2022-08-08T02:27:42.587Z,99.90
2022-08-08T02:30:21.865Z,99.90
2022-08-08T02:33:11.884Z,99.90
2022-08-08T02:36:04.870Z,99.90
2022-08-08T02:38:44.815Z,99.90
2022-08-08T02:41:59.329Z,99.90
2022-08-08T02:44:56.883Z,99.90
2022-08-08T02:47:51.977Z,99.90
2022-08-08T02:50:39.845Z,99.90
2022-08-08T02:53:21.945Z,99.90
2022-08-08T02:56:11.161Z,99.90
2022-08-08T02:59:03.073Z,99.90
2022-08-08T03:02:09.101Z,99.90
2022-08-08T03:05:09.399Z,99.90
2022-08-08T03:07:58.578Z,99.90
2022-08-08T03:10:44.373Z,99.90
2022-08-08T03:15:58.958Z,99.90
2022-08-08T03:16:35.767Z,99.90
2022-08-08T03:19:21.296Z,99.90
2022-08-08T03:21:58.844Z,99.90
2022-08-08T03:24:32.459Z,99.90
2022-08-08T03:27:07.871Z,99.90
2022-08-08T03:29:54.743Z,99.90
2022-08-08T03:32:52.817Z,99.90
2022-08-08T03:35:30.325Z,99.90
2022-08-08T03:38:53.538Z,99.90
2022-08-08T03:40:56.862Z,99.90
2022-08-08T03:43:38.312Z,99.90
2022-08-08T03:46:09.060Z,99.90
2022-08-08T03:49:27.958Z,99.90
2022-08-08T03:51:50.389Z,99.90
2022-08-08T03:54:41.399Z,99.90
2022-08-08T03:58:31.041Z,99.90
2022-08-08T04:00:11.276Z,99.90
2022-08-08T04:02:55.434Z,99.90
2022-08-08T04:05:28.910Z,99.90
2022-08-08T04:08:03.319Z,99.90
2022-08-08T04:10:33.897Z,99.90
2022-08-08T04:13:18.065Z,99.90
2022-08-08T04:16:03.872Z,99.90
2022-08-08T04:18:44.871Z,99.90
2022-08-08T04:21:23.198Z,99.90
2022-08-08T04:24:12.045Z,99.90
2022-08-08T04:26:57.490Z,99.90
2022-08-08T04:29:37.062Z,99.90
2022-08-08T04:32:10.503Z,99.90
2022-08-08T04:34:58.394Z,99.90
2022-08-08T04:37:32.982Z,99.90
2022-08-08T04:40:10.698Z,99.90
2022-08-08T04:42:57.406Z,99.90
2022-08-08T04:45:33.500Z,99.90
2022-08-08T04:48:04.015Z,99.90
2022-08-08T04:50:38.670Z,99.90
2022-08-08T04:54:26.839Z,99.90
2022-08-08T04:56:08.724Z,99.90
2022-08-08T04:58:38.359Z,99.90
2022-08-08T05:01:11.342Z,99.90
2022-08-08T05:04:10.002Z,99.90
2022-08-08T05:06:41.146Z,99.90
2022-08-08T05:09:12.860Z,99.90
2022-08-08T05:11:47.750Z,99.90
2022-08-08T05:14:26.193Z,99.90
2022-08-08T05:17:02.047Z,99.90
2022-08-08T05:20:10.852Z,99.90
2022-08-08T05:22:33.069Z,99.90
2022-08-08T05:25:04.119Z,99.90
2022-08-08T05:27:41.134Z,99.90
2022-08-08T05:30:12.403Z,99.90
2022-08-08T05:32:49.201Z,99.90
2022-08-08T05:35:23.440Z,99.90
2022-08-08T05:37:58.822Z,99.90
2022-08-08T05:40:50.670Z,99.90
2022-08-08T05:43:39.560Z,99.90
2022-08-08T05:46:11.854Z,99.90
2022-08-08T05:48:43.736Z,99.90
2022-08-08T05:51:22.438Z,99.90
2022-08-08T05:54:28.071Z,99.90
2022-08-08T05:56:48.247Z,99.90
2022-08-08T06:00:00.958Z,99.90
2022-08-08T06:02:41.293Z,99.90
2022-08-08T06:05:24.269Z,99.90
2022-08-08T06:08:09.644Z,99.90
2022-08-08T06:10:42.293Z,99.90
2022-08-08T06:13:13.969Z,99.90
2022-08-08T06:15:53.451Z,99.90
2022-08-08T06:18:30.275Z,99.90
2022-08-08T06:21:03.737Z,99.90
2022-08-08T06:24:02.208Z,99.90
2022-08-08T06:26:42.933Z,99.90
2022-08-08T06:29:26.211Z,99.90
2022-08-08T06:32:10.229Z,99.90
2022-08-08T06:34:42.461Z,99.90
2022-08-08T06:37:25.616Z,99.90
2022-08-08T06:40:01.193Z,99.90
2022-08-08T06:42:34.771Z,99.90
2022-08-08T06:45:06.720Z,99.90
2022-08-08T06:47:52.270Z,99.90
2022-08-08T06:50:32.334Z,99.90
2022-08-08T06:53:14.177Z,99.90
2022-08-08T06:56:00.617Z,99.90
2022-08-08T06:58:34.214Z,99.90
2022-08-08T07:01:24.522Z,99.90
2022-08-08T07:04:37.357Z,99.90
2022-08-08T07:06:52.679Z,99.90
2022-08-08T07:09:27.095Z,99.90
2022-08-08T07:11:59.033Z,99.90
2022-08-08T07:14:37.110Z,99.90
2022-08-08T07:17:09.468Z,99.90
2022-08-08T07:19:49.189Z,99.90
2022-08-08T07:22:22.240Z,99.90
2022-08-08T07:24:57.115Z,99.90
2022-08-08T07:27:47.014Z,99.90
2022-08-08T07:30:25.569Z,99.90
2022-08-08T07:32:59.396Z,99.90
2022-08-08T07:35:35.798Z,99.90
2022-08-08T07:38:18.205Z,99.90
2022-08-08T07:40:58.922Z,99.90
2022-08-08T07:43:37.122Z,99.90
2022-08-08T07:46:23.371Z,99.90
2022-08-08T07:48:54.095Z,99.90
2022-08-08T07:51:44.991Z,99.90
2022-08-08T07:54:26.674Z,99.90
2022-08-08T07:57:08.982Z,99.90
2022-08-08T07:59:45.425Z,99.90
2022-08-08T08:02:35.534Z,99.90
2022-08-08T08:05:14.860Z,99.90
2022-08-08T08:07:52.899Z,99.90
2022-08-08T08:10:30.592Z,99.90
2022-08-08T08:13:25.424Z,99.90
2022-08-08T08:16:01.671Z,99.90
2022-08-08T08:18:40.322Z,99.90
2022-08-08T08:21:44.209Z,99.90
2022-08-08T08:24:13.463Z,99.90
2022-08-08T08:26:46.814Z,99.90
2022-08-08T08:29:28.042Z,99.90
2022-08-08T08:31:59.382Z,99.90
2022-08-08T08:34:33.770Z,99.90
2022-08-08T08:37:08.426Z,99.90
2022-08-08T08:40:01.667Z,99.90
2022-08-08T08:42:36.419Z,99.90
2022-08-08T08:47:58.408Z,99.90
2022-08-08T08:50:33.851Z,99.90
2022-08-08T08:53:53.993Z,99.90
2022-08-08T08:56:03.060Z,99.90
2022-08-08T08:58:39.750Z,99.90
2022-08-08T09:01:13.195Z,99.90
2022-08-08T09:03:50.961Z,99.90
2022-08-08T09:06:33.753Z,99.90
2022-08-08T09:09:26.204Z,99.90
2022-08-08T09:12:11.657Z,99.90
2022-08-08T09:14:44.998Z,99.90
2022-08-08T09:17:19.282Z,99.90
2022-08-08T09:21:58.408Z,99.90
2022-08-08T09:22:45.834Z,99.90
2022-08-08T09:25:17.190Z,99.90
2022-08-08T09:27:57.221Z,99.90
2022-08-08T09:30:32.828Z,99.90
2022-08-08T09:33:20.785Z,99.90
2022-08-08T10:04:35.502Z,74.00
2022-08-08T10:07:07.882Z,68.40
2022-08-08T10:10:00.175Z,67.80
2022-08-08T10:12:54.286Z,69.70
2022-08-08T10:15:27.284Z,67.20
2022-08-08T10:18:09.085Z,67.30
2022-08-08T10:20:51.228Z,67.70
2022-08-08T10:23:44.122Z,69.00
2022-08-08T10:26:25.748Z,73.90
2022-08-08T10:29:03.060Z,77.70
2022-08-08T10:31:49.901Z,64.60
2022-08-08T10:34:21.141Z,65.80
2022-08-08T10:36:52.123Z,64.60
2022-08-08T10:39:23.429Z,64.30
2022-08-08T10:42:15.492Z,64.10
2022-08-08T10:44:46.103Z,63.50
2022-08-08T10:47:21.106Z,66.70
2022-08-08T10:50:01.299Z,63.60
2022-08-08T10:52:34.204Z,62.00
2022-08-08T10:55:06.376Z,63.50
2022-08-08T10:57:49.737Z,62.20
2022-08-08T11:00:25.762Z,61.00
2022-08-08T11:02:55.293Z,70.00
2022-08-08T11:05:24.418Z,65.60
2022-08-08T11:08:37.971Z,69.60
2022-08-08T11:10:43.873Z,65.80
2022-08-08T11:13:28.182Z,65.80
2022-08-08T11:16:07.850Z,68.20
2022-08-08T11:18:40.319Z,62.80
2022-08-08T11:21:10.301Z,65.30
2022-08-08T11:24:01.977Z,64.80
2022-08-08T11:26:32.364Z,67.90
2022-08-08T11:29:02.577Z,64.30
2022-08-08T11:31:43.622Z,65.50
2022-08-08T11:34:22.796Z,63.70
2022-08-08T11:36:52.975Z,64.50
2022-08-08T11:39:37.149Z,57.90
2022-08-08T11:42:09.139Z,55.40
2022-08-08T11:44:38.641Z,53.40
2022-08-08T11:47:12.860Z,54.60
2022-08-08T11:49:49.046Z,55.00
2022-08-08T11:57:27.514Z,62.40
2022-08-08T12:00:02.670Z,57.00
2022-08-08T12:02:50.899Z,54.20
2022-08-08T12:05:22.764Z,58.40
2022-08-08T12:07:56.107Z,59.40
2022-08-08T12:10:27.236Z,64.20
2022-08-08T12:13:03.408Z,54.90
2022-08-08T12:15:39.918Z,54.60
2022-08-08T12:18:20.733Z,57.20
2022-08-08T12:20:53.038Z,56.70
2022-08-08T12:23:30.571Z,55.10
2022-08-08T12:31:08.981Z,47.20
2022-08-08T12:36:39.799Z,48.30
2022-08-08T12:39:15.428Z,42.80
2022-08-08T12:41:57.532Z,41.10
2022-08-08T12:44:32.594Z,40.70
2022-08-08T12:49:45.165Z,45.40
2022-08-08T12:57:26.183Z,47.80
2022-08-08T13:00:04.357Z,48.40
2022-08-08T13:05:05.955Z,53.40
2022-08-08T13:08:02.888Z,53.80
2022-08-08T13:10:36.607Z,55.10
2022-08-08T13:20:48.885Z,58.60
2022-08-08T13:23:36.603Z,54.70
2022-08-08T13:26:16.110Z,55.90
2022-08-08T13:28:49.554Z,52.80
2022-08-08T13:31:18.280Z,57.80
2022-08-08T13:33:50.167Z,56.50
2022-08-08T13:36:26.028Z,54.40
2022-08-08T13:38:59.296Z,54.40
2022-08-08T13:41:37.533Z,53.40
2022-08-08T13:44:11.063Z,53.30
2022-08-08T13:46:40.526Z,55.30
2022-08-08T13:50:34.665Z,55.30
2022-08-08T13:52:07.659Z,54.30
2022-08-08T13:54:44.046Z,54.80
2022-08-08T13:57:17.558Z,53.80
2022-08-08T14:00:06.913Z,53.50
2022-08-08T14:02:43.179Z,53.80
2022-08-08T14:05:20.595Z,55.60
2022-08-08T14:07:59.614Z,57.10
2022-08-08T14:10:32.995Z,55.50
2022-08-08T14:13:30.628Z,57.70
2022-08-08T14:16:15.909Z,57.30
2022-08-08T14:18:53.613Z,55.50
2022-08-08T14:21:23.355Z,52.30
2022-08-08T14:24:04.164Z,55.30
2022-08-08T14:26:38.301Z,56.10
2022-08-08T14:29:11.590Z,53.70
2022-08-08T14:37:08.276Z,55.20
2022-08-08T14:42:26.751Z,52.00
2022-08-08T14:47:24.842Z,50.50
2022-08-08T14:50:10.693Z,51.90
2022-08-08T14:52:46.275Z,53.60
2022-08-08T14:58:05.930Z,52.30
2022-08-08T15:31:04.302Z,65.00
2022-08-08T15:36:07.729Z,60.80
2022-08-08T15:38:36.311Z,64.80
2022-08-08T15:41:09.427Z,65.20
2022-08-08T15:43:38.182Z,63.40
2022-08-08T15:46:08.182Z,65.70
2022-08-08T15:48:38.964Z,64.00
2022-08-08T15:51:11.280Z,65.50
2022-08-08T15:53:49.929Z,66.90
2022-08-08T15:56:20.057Z,66.40
2022-08-08T15:58:50.253Z,67.40
2022-08-08T16:03:52.260Z,66.70
2022-08-08T16:06:28.232Z,69.80
2022-08-08T16:13:02.213Z,71.10
2022-08-08T16:13:08.884Z,71.60
2022-08-08T16:14:37.524Z,74.80
2022-08-08T16:17:06.911Z,72.10
2022-08-08T16:20:00.082Z,76.80
2022-08-08T16:22:30.182Z,84.30
2022-08-08T16:25:03.787Z,81.40
2022-08-08T16:30:13.021Z,85.40
2022-08-08T16:32:43.264Z,86.90
2022-08-08T16:35:22.872Z,84.10
2022-08-08T16:37:52.254Z,86.60
2022-08-08T16:40:20.897Z,86.80
2022-08-08T16:42:54.303Z,90.10
2022-08-08T16:46:36.570Z,90.80
2022-08-08T16:48:13.845Z,91.60
2022-08-08T16:55:06.010Z,97.00
2022-08-08T16:56:03.133Z,99.90
2022-08-08T16:58:34.917Z,99.90
2022-08-08T17:01:05.813Z,99.90
2022-08-08T17:04:00.438Z,99.90
2022-08-08T17:06:37.176Z,99.90
2022-08-08T17:09:15.546Z,99.90
2022-08-08T17:11:50.934Z,99.90
2022-08-08T17:14:33.135Z,99.90
2022-08-08T17:17:04.651Z,99.90
2022-08-08T17:19:41.047Z,99.90
2022-08-08T17:22:10.734Z,99.90
2022-08-08T17:24:43.815Z,99.90
2022-08-08T17:27:27.384Z,99.90
2022-08-08T17:29:58.018Z,99.90
2022-08-08T17:32:28.848Z,99.90
2022-08-08T17:35:52.193Z,99.90
2022-08-08T17:37:53.346Z,99.90
2022-08-08T17:40:24.735Z,99.90
2022-08-08T17:42:54.867Z,99.90
2022-08-08T17:45:24.456Z,99.90
2022-08-08T17:47:54.807Z,99.90
2022-08-08T17:50:24.883Z,99.90
2022-08-08T17:52:53.781Z,99.90
2022-08-08T17:56:05.336Z,99.90
2022-08-08T17:58:18.262Z,99.90
2022-08-08T18:00:57.032Z,99.90
2022-08-08T18:03:27.009Z,99.90
2022-08-08T18:05:56.319Z,99.90
2022-08-08T18:08:41.148Z,99.90
2022-08-08T18:11:14.622Z,99.90
2022-08-08T18:13:45.604Z,99.90
2022-08-08T18:16:20.194Z,99.90
2022-08-08T18:24:04.524Z,99.90
2022-08-08T18:26:35.226Z,99.90
2022-08-08T18:29:06.057Z,99.90
2022-08-08T18:34:11.484Z,99.90
2022-08-08T18:36:47.765Z,99.90
2022-08-08T18:39:27.715Z,99.90
2022-08-08T18:42:03.708Z,99.90
2022-08-08T18:44:34.596Z,99.90
2022-08-08T18:47:05.095Z,99.90
2022-08-08T18:49:54.740Z,99.90
2022-08-08T18:52:23.477Z,99.90
2022-08-08T18:54:59.697Z,99.90
2022-08-08T18:57:44.748Z,99.90
2022-08-08T19:00:19.478Z,99.90
2022-08-08T19:02:55.411Z,99.90
2022-08-08T19:05:32.162Z,99.90
2022-08-08T19:08:25.594Z,99.90
2022-08-08T19:13:52.570Z,99.90
2022-08-08T19:16:19.575Z,99.90
2022-08-08T19:19:00.068Z,99.90
2022-08-08T19:21:33.531Z,99.90
2022-08-08T19:24:34.098Z,99.90
2022-08-08T19:27:05.824Z,99.90
2022-08-08T19:29:40.661Z,99.90
2022-08-08T19:32:13.137Z,99.90
2022-08-08T19:34:49.354Z,99.90
2022-08-08T19:37:43.651Z,99.90
2022-08-08T19:40:14.540Z,99.90
2022-08-08T19:42:46.290Z,99.90
2022-08-08T19:45:59.990Z,99.90
2022-08-08T19:48:08.022Z,99.90
2022-08-08T19:50:55.493Z,99.90
2022-08-08T19:53:52.382Z,99.90
2022-08-08T19:56:16.311Z,99.90
2022-08-08T19:58:55.148Z,99.90
2022-08-08T20:01:50.273Z,99.90
2022-08-08T20:04:14.087Z,99.90
2022-08-08T20:06:43.222Z,99.90
2022-08-08T20:09:15.835Z,99.90
2022-08-08T20:11:46.306Z,99.90
2022-08-08T20:14:33.653Z,99.90
2022-08-08T20:19:42.323Z,99.90
2022-08-08T20:22:13.036Z,99.90
2022-08-08T20:24:50.308Z,99.90
2022-08-08T20:27:21.366Z,99.90
2022-08-08T20:30:00.375Z,99.90
2022-08-08T20:32:31.947Z,99.90
2022-08-08T20:35:04.463Z,99.90
2022-08-08T20:37:46.743Z,99.90
2022-08-08T20:40:38.592Z,99.90
2022-08-08T20:43:13.223Z,99.90
2022-08-08T20:45:57.551Z,99.90
2022-08-08T20:48:32.561Z,99.90
2022-08-08T20:51:07.211Z,99.90
2022-08-08T20:53:58.307Z,99.90
2022-08-08T20:56:35.723Z,99.90
2022-08-08T20:59:15.042Z,99.90
2022-08-08T21:02:05.463Z,99.90
2022-08-08T21:04:32.584Z,99.90
2022-08-08T21:07:02.894Z,99.90
2022-08-08T21:10:01.420Z,99.90
2022-08-08T21:12:33.398Z,99.90
2022-08-08T21:15:06.608Z,99.90
2022-08-08T21:17:36.819Z,99.90
2022-08-08T21:20:06.023Z,99.90
2022-08-08T21:22:36.420Z,99.90
2022-08-08T21:25:10.522Z,99.90
2022-08-08T21:28:14.600Z,99.90
2022-08-08T21:30:31.015Z,99.90
2022-08-08T21:32:59.550Z,99.90
2022-08-08T21:36:17.478Z,99.90
2022-08-08T21:38:18.484Z,99.90
2022-08-08T21:40:56.002Z,99.90
2022-08-08T21:43:33.651Z,99.90
2022-08-08T21:48:07.615Z,99.90
2022-08-08T21:48:53.994Z,99.90
2022-08-08T21:54:17.954Z,99.90
2022-08-08T21:54:34.363Z,99.90
2022-08-08T21:57:04.078Z,99.90
2022-08-08T21:59:59.379Z,99.90
2022-08-08T22:02:23.497Z,99.90
2022-08-08T22:04:53.360Z,99.90
2022-08-08T22:07:26.191Z,99.90
2022-08-08T22:10:09.942Z,99.90
2022-08-08T22:12:47.789Z,99.90
2022-08-08T22:20:23.883Z,99.90
2022-08-08T22:28:03.840Z,99.90
2022-08-08T22:30:33.899Z,99.90
2022-08-08T22:38:21.257Z,99.90
2022-08-08T22:40:50.785Z,99.90
2022-08-08T22:43:20.767Z,99.90
2022-08-08T22:45:52.776Z,99.90
2022-08-08T22:50:51.161Z,99.90
2022-08-08T22:54:30.436Z,99.90
2022-08-08T22:56:08.784Z,99.90
2022-08-08T22:58:39.004Z,99.90
2022-08-08T23:02:00.805Z,99.90
2022-08-08T23:06:26.602Z,99.90
2022-08-08T23:08:58.659Z,99.90
2022-08-08T23:11:31.043Z,99.90
2022-08-08T23:14:20.509Z,99.90
2022-08-08T23:16:57.886Z,99.90
2022-08-08T23:19:32.490Z,99.90
2022-08-08T23:22:04.479Z,99.90
2022-08-08T23:24:36.589Z,99.90
2022-08-08T23:27:06.010Z,99.90
2022-08-08T23:32:05.383Z,99.90
2022-08-08T23:34:34.733Z,99.90
2022-08-08T23:37:03.571Z,99.90
2022-08-08T23:39:41.431Z,99.90
2022-08-08T23:42:11.037Z,99.90
2022-08-08T23:49:06.767Z,99.90
2022-08-08T23:50:03.328Z,99.90
2022-08-08T23:52:34.470Z,99.90
2022-08-08T23:57:53.126Z,99.90
